sensor_id;sensor_type;location;lat;lon;timestamp;P1;durP1;ratioP1;P2;durP2;ratioP2
44130;SDS011;29792;48.726;9.248;2022-09-12T00:02:18;7.35;;;6.65;;
44130;SDS011;29792;48.726;9.248;2022-09-12T00:04:43;6.68;;;6.00;;
44130;SDS011;29792;48.726;9.248;2022-09-12T00:07:08;9.32;;;6.28;;
44130;SDS011;29792;48.726;9.248;2022-09-12T00:09:34;6.63;;;6.03;;
44130;SDS011;29792;48.726;9.248;2022-09-12T00:11:59;7.10;;;6.05;;
44130;SDS011;29792;48.726;9.248;2022-09-12T00:14:24;6.50;;;5.43;;
44130;SDS011;29792;48.726;9.248;2022-09-12T00:16:49;7.68;;;6.22;;
44130;SDS011;29792;48.726;9.248;2022-09-12T00:19:14;7.88;;;6.40;;
44130;SDS011;29792;48.726;9.248;2022-09-12T00:21:40;7.72;;;6.93;;
44130;SDS011;29792;48.726;9.248;2022-09-12T00:24:06;8.38;;;7.18;;
44130;SDS011;29792;48.726;9.248;2022-09-12T00:26:32;7.63;;;6.85;;
44130;SDS011;29792;48.726;9.248;2022-09-12T00:28:57;6.68;;;5.80;;
44130;SDS011;29792;48.726;9.248;2022-09-12T00:31:23;6.97;;;6.30;;
44130;SDS011;29792;48.726;9.248;2022-09-12T00:33:50;9.75;;;6.93;;
44130;SDS011;29792;48.726;9.248;2022-09-12T00:36:20;8.13;;;6.78;;
44130;SDS011;29792;48.726;9.248;2022-09-12T00:38:47;12.45;;;7.95;;
44130;SDS011;29792;48.726;9.248;2022-09-12T00:43:56;10.57;;;8.25;;
44130;SDS011;29792;48.726;9.248;2022-09-12T00:46:27;9.38;;;7.97;;
44130;SDS011;29792;48.726;9.248;2022-09-12T00:49:00;9.70;;;8.10;;
44130;SDS011;29792;48.726;9.248;2022-09-12T00:51:30;8.18;;;7.38;;
44130;SDS011;29792;48.726;9.248;2022-09-12T00:53:58;7.82;;;6.82;;
44130;SDS011;29792;48.726;9.248;2022-09-12T00:56:30;11.65;;;7.47;;
44130;SDS011;29792;48.726;9.248;2022-09-12T00:58:58;8.45;;;7.45;;
44130;SDS011;29792;48.726;9.248;2022-09-12T01:01:25;8.73;;;7.78;;
44130;SDS011;29792;48.726;9.248;2022-09-12T01:03:51;8.95;;;7.32;;
44130;SDS011;29792;48.726;9.248;2022-09-12T01:06:17;9.00;;;7.32;;
44130;SDS011;29792;48.726;9.248;2022-09-12T01:08:46;8.48;;;7.38;;
44130;SDS011;29792;48.726;9.248;2022-09-12T01:11:12;8.93;;;7.75;;
44130;SDS011;29792;48.726;9.248;2022-09-12T01:13:39;9.18;;;8.27;;
44130;SDS011;29792;48.726;9.248;2022-09-12T01:16:05;10.40;;;8.68;;
44130;SDS011;29792;48.726;9.248;2022-09-12T01:18:37;9.63;;;8.65;;
44130;SDS011;29792;48.726;9.248;2022-09-12T01:27:09;9.77;;;8.82;;
44130;SDS011;29792;48.726;9.248;2022-09-12T01:32:52;9.32;;;8.30;;
44130;SDS011;29792;48.726;9.248;2022-09-12T01:38:27;8.25;;;7.45;;
44130;SDS011;29792;48.726;9.248;2022-09-12T01:41:01;8.60;;;7.22;;
44130;SDS011;29792;48.726;9.248;2022-09-12T01:43:47;7.57;;;6.88;;
44130;SDS011;29792;48.726;9.248;2022-09-12T01:46:23;9.40;;;8.10;;
44130;SDS011;29792;48.726;9.248;2022-09-12T01:49:01;7.45;;;6.75;;
44130;SDS011;29792;48.726;9.248;2022-09-12T01:52:16;8.75;;;7.40;;
44130;SDS011;29792;48.726;9.248;2022-09-12T01:54:54;8.43;;;7.35;;
44130;SDS011;29792;48.726;9.248;2022-09-12T01:57:29;7.57;;;6.68;;
44130;SDS011;29792;48.726;9.248;2022-09-12T02:00:04;9.00;;;6.82;;
44130;SDS011;29792;48.726;9.248;2022-09-12T02:02:34;10.13;;;8.50;;
44130;SDS011;29792;48.726;9.248;2022-09-12T02:05:11;8.57;;;7.22;;
44130;SDS011;29792;48.726;9.248;2022-09-12T02:07:43;8.85;;;8.00;;
44130;SDS011;29792;48.726;9.248;2022-09-12T02:10:14;7.65;;;6.85;;
44130;SDS011;29792;48.726;9.248;2022-09-12T02:12:46;8.68;;;7.45;;
44130;SDS011;29792;48.726;9.248;2022-09-12T02:15:16;9.20;;;8.30;;
44130;SDS011;29792;48.726;9.248;2022-09-12T02:17:45;9.60;;;8.27;;
44130;SDS011;29792;48.726;9.248;2022-09-12T02:20:21;8.35;;;7.40;;
44130;SDS011;29792;48.726;9.248;2022-09-12T02:22:50;11.52;;;7.53;;
44130;SDS011;29792;48.726;9.248;2022-09-12T02:25:19;9.00;;;8.10;;
44130;SDS011;29792;48.726;9.248;2022-09-12T02:27:47;7.63;;;6.88;;
44130;SDS011;29792;48.726;9.248;2022-09-12T02:30:17;8.82;;;7.55;;
44130;SDS011;29792;48.726;9.248;2022-09-12T02:35:35;10.45;;;7.85;;
44130;SDS011;29792;48.726;9.248;2022-09-12T02:38:42;9.85;;;8.85;;
44130;SDS011;29792;48.726;9.248;2022-09-12T02:41:06;10.63;;;9.18;;
44130;SDS011;29792;48.726;9.248;2022-09-12T02:43:32;10.13;;;7.88;;
44130;SDS011;29792;48.726;9.248;2022-09-12T02:45:57;8.98;;;7.85;;
44130;SDS011;29792;48.726;9.248;2022-09-12T02:48:25;9.80;;;8.15;;
44130;SDS011;29792;48.726;9.248;2022-09-12T02:50:54;10.93;;;9.55;;
44130;SDS011;29792;48.726;9.248;2022-09-12T02:53:20;12.52;;;8.23;;
44130;SDS011;29792;48.726;9.248;2022-09-12T02:55:46;9.75;;;7.95;;
44130;SDS011;29792;48.726;9.248;2022-09-12T02:58:12;9.43;;;8.43;;
44130;SDS011;29792;48.726;9.248;2022-09-12T03:00:53;10.70;;;9.07;;
44130;SDS011;29792;48.726;9.248;2022-09-12T03:03:39;10.60;;;8.25;;
44130;SDS011;29792;48.726;9.248;2022-09-12T03:06:34;11.18;;;9.80;;
44130;SDS011;29792;48.726;9.248;2022-09-12T03:09:16;9.82;;;8.82;;
44130;SDS011;29792;48.726;9.248;2022-09-12T03:14:42;11.27;;;10.18;;
44130;SDS011;29792;48.726;9.248;2022-09-12T03:17:30;9.68;;;7.88;;
44130;SDS011;29792;48.726;9.248;2022-09-12T03:20:36;10.52;;;9.38;;
44130;SDS011;29792;48.726;9.248;2022-09-12T03:23:16;10.32;;;9.25;;
44130;SDS011;29792;48.726;9.248;2022-09-12T03:25:48;10.45;;;9.35;;
44130;SDS011;29792;48.726;9.248;2022-09-12T03:28:18;9.15;;;8.25;;
44130;SDS011;29792;48.726;9.248;2022-09-12T03:30:46;8.23;;;7.28;;
44130;SDS011;29792;48.726;9.248;2022-09-12T03:33:13;9.07;;;7.85;;
44130;SDS011;29792;48.726;9.248;2022-09-12T03:35:40;9.60;;;8.55;;
44130;SDS011;29792;48.726;9.248;2022-09-12T03:38:06;9.65;;;8.63;;
44130;SDS011;29792;48.726;9.248;2022-09-12T03:40:32;10.60;;;9.50;;
44130;SDS011;29792;48.726;9.248;2022-09-12T03:42:58;10.43;;;9.20;;
44130;SDS011;29792;48.726;9.248;2022-09-12T03:45:23;9.23;;;8.32;;
44130;SDS011;29792;48.726;9.248;2022-09-12T03:47:48;13.13;;;9.60;;
44130;SDS011;29792;48.726;9.248;2022-09-12T03:50:14;10.43;;;9.23;;
44130;SDS011;29792;48.726;9.248;2022-09-12T03:52:39;11.80;;;10.35;;
44130;SDS011;29792;48.726;9.248;2022-09-12T03:55:04;10.20;;;8.48;;
44130;SDS011;29792;48.726;9.248;2022-09-12T03:57:30;9.98;;;8.30;;
44130;SDS011;29792;48.726;9.248;2022-09-12T03:59:55;11.65;;;9.60;;
44130;SDS011;29792;48.726;9.248;2022-09-12T04:02:21;12.05;;;9.55;;
44130;SDS011;29792;48.726;9.248;2022-09-12T04:04:46;12.80;;;9.38;;
44130;SDS011;29792;48.726;9.248;2022-09-12T04:07:13;10.68;;;9.63;;
44130;SDS011;29792;48.726;9.248;2022-09-12T04:09:39;11.77;;;10.38;;
44130;SDS011;29792;48.726;9.248;2022-09-12T04:12:04;10.93;;;9.65;;
44130;SDS011;29792;48.726;9.248;2022-09-12T04:14:30;14.38;;;10.93;;
44130;SDS011;29792;48.726;9.248;2022-09-12T04:16:55;11.75;;;9.57;;
44130;SDS011;29792;48.726;9.248;2022-09-12T04:19:21;11.32;;;9.52;;
44130;SDS011;29792;48.726;9.248;2022-09-12T04:21:47;12.75;;;10.48;;
44130;SDS011;29792;48.726;9.248;2022-09-12T04:24:12;11.45;;;9.63;;
44130;SDS011;29792;48.726;9.248;2022-09-12T04:26:38;10.88;;;8.15;;
44130;SDS011;29792;48.726;9.248;2022-09-12T04:29:03;11.77;;;9.65;;
44130;SDS011;29792;48.726;9.248;2022-09-12T04:31:28;11.15;;;9.48;;
44130;SDS011;29792;48.726;9.248;2022-09-12T04:33:54;11.82;;;9.45;;
44130;SDS011;29792;48.726;9.248;2022-09-12T04:36:22;12.20;;;9.23;;
44130;SDS011;29792;48.726;9.248;2022-09-12T04:38:47;10.18;;;8.90;;
44130;SDS011;29792;48.726;9.248;2022-09-12T04:41:14;10.82;;;9.27;;
44130;SDS011;29792;48.726;9.248;2022-09-12T04:43:42;10.95;;;9.32;;
44130;SDS011;29792;48.726;9.248;2022-09-12T04:46:10;10.07;;;8.43;;
44130;SDS011;29792;48.726;9.248;2022-09-12T04:48:37;35.70;;;9.70;;
44130;SDS011;29792;48.726;9.248;2022-09-12T04:51:06;12.05;;;9.43;;
44130;SDS011;29792;48.726;9.248;2022-09-12T04:53:33;10.55;;;9.43;;
44130;SDS011;29792;48.726;9.248;2022-09-12T04:56:03;11.98;;;9.40;;
44130;SDS011;29792;48.726;9.248;2022-09-12T04:58:30;10.32;;;9.23;;
44130;SDS011;29792;48.726;9.248;2022-09-12T05:00:56;11.02;;;9.77;;
44130;SDS011;29792;48.726;9.248;2022-09-12T05:03:28;11.45;;;10.25;;
44130;SDS011;29792;48.726;9.248;2022-09-12T05:05:53;11.98;;;9.55;;
44130;SDS011;29792;48.726;9.248;2022-09-12T05:08:18;13.93;;;10.25;;
44130;SDS011;29792;48.726;9.248;2022-09-12T05:10:43;10.13;;;8.88;;
44130;SDS011;29792;48.726;9.248;2022-09-12T05:13:09;9.63;;;8.68;;
44130;SDS011;29792;48.726;9.248;2022-09-12T05:15:34;11.13;;;8.35;;
44130;SDS011;29792;48.726;9.248;2022-09-12T05:17:59;10.18;;;8.75;;
44130;SDS011;29792;48.726;9.248;2022-09-12T05:20:24;11.05;;;8.30;;
44130;SDS011;29792;48.726;9.248;2022-09-12T05:22:50;7.53;;;6.72;;
44130;SDS011;29792;48.726;9.248;2022-09-12T05:25:15;12.73;;;6.35;;
44130;SDS011;29792;48.726;9.248;2022-09-12T05:27:41;6.43;;;5.57;;
44130;SDS011;29792;48.726;9.248;2022-09-12T05:30:06;8.40;;;5.63;;
44130;SDS011;29792;48.726;9.248;2022-09-12T05:32:32;5.43;;;4.90;;
44130;SDS011;29792;48.726;9.248;2022-09-12T05:34:57;8.43;;;5.57;;
44130;SDS011;29792;48.726;9.248;2022-09-12T05:37:23;9.52;;;6.10;;
44130;SDS011;29792;48.726;9.248;2022-09-12T05:39:48;8.15;;;5.80;;
44130;SDS011;29792;48.726;9.248;2022-09-12T05:42:13;6.03;;;5.30;;
44130;SDS011;29792;48.726;9.248;2022-09-12T05:44:39;7.95;;;5.93;;
44130;SDS011;29792;48.726;9.248;2022-09-12T05:47:04;6.25;;;4.85;;
44130;SDS011;29792;48.726;9.248;2022-09-12T05:49:29;8.25;;;5.95;;
44130;SDS011;29792;48.726;9.248;2022-09-12T05:51:55;7.43;;;5.82;;
44130;SDS011;29792;48.726;9.248;2022-09-12T05:54:20;6.78;;;6.10;;
44130;SDS011;29792;48.726;9.248;2022-09-12T05:56:46;9.13;;;6.28;;
44130;SDS011;29792;48.726;9.248;2022-09-12T05:59:17;19.67;;;8.02;;
44130;SDS011;29792;48.726;9.248;2022-09-12T06:01:44;11.02;;;7.65;;
44130;SDS011;29792;48.726;9.248;2022-09-12T06:04:10;13.63;;;9.95;;
44130;SDS011;29792;48.726;9.248;2022-09-12T06:06:39;10.00;;;8.60;;
44130;SDS011;29792;48.726;9.248;2022-09-12T06:09:08;19.10;;;8.48;;
44130;SDS011;29792;48.726;9.248;2022-09-12T06:11:35;15.18;;;9.23;;
44130;SDS011;29792;48.726;9.248;2022-09-12T06:14:01;9.27;;;7.65;;
44130;SDS011;29792;48.726;9.248;2022-09-12T06:16:28;10.70;;;9.50;;
44130;SDS011;29792;48.726;9.248;2022-09-12T06:18:56;13.02;;;8.70;;
44130;SDS011;29792;48.726;9.248;2022-09-12T06:21:23;9.80;;;8.02;;
44130;SDS011;29792;48.726;9.248;2022-09-12T06:23:50;11.70;;;8.93;;
44130;SDS011;29792;48.726;9.248;2022-09-12T06:26:17;12.13;;;9.18;;
44130;SDS011;29792;48.726;9.248;2022-09-12T06:28:45;12.07;;;9.75;;
44130;SDS011;29792;48.726;9.248;2022-09-12T06:31:12;12.00;;;9.48;;
44130;SDS011;29792;48.726;9.248;2022-09-12T06:33:40;11.25;;;10.00;;
44130;SDS011;29792;48.726;9.248;2022-09-12T06:36:09;11.85;;;10.63;;
44130;SDS011;29792;48.726;9.248;2022-09-12T06:38:40;13.82;;;10.27;;
44130;SDS011;29792;48.726;9.248;2022-09-12T06:41:06;14.82;;;10.77;;
44130;SDS011;29792;48.726;9.248;2022-09-12T06:43:34;12.02;;;9.70;;
44130;SDS011;29792;48.726;9.248;2022-09-12T06:46:00;11.48;;;9.70;;
44130;SDS011;29792;48.726;9.248;2022-09-12T06:48:26;11.38;;;9.05;;
44130;SDS011;29792;48.726;9.248;2022-09-12T06:50:55;12.15;;;9.27;;
44130;SDS011;29792;48.726;9.248;2022-09-12T06:53:22;17.83;;;11.38;;
44130;SDS011;29792;48.726;9.248;2022-09-12T06:55:58;14.80;;;10.02;;
44130;SDS011;29792;48.726;9.248;2022-09-12T06:58:25;11.80;;;8.63;;
44130;SDS011;29792;48.726;9.248;2022-09-12T07:00:51;13.02;;;9.30;;
44130;SDS011;29792;48.726;9.248;2022-09-12T07:03:16;9.57;;;8.65;;
44130;SDS011;29792;48.726;9.248;2022-09-12T07:05:43;11.70;;;9.63;;
44130;SDS011;29792;48.726;9.248;2022-09-12T07:08:09;12.60;;;9.82;;
44130;SDS011;29792;48.726;9.248;2022-09-12T07:10:34;12.25;;;10.85;;
44130;SDS011;29792;48.726;9.248;2022-09-12T07:13:00;13.43;;;11.23;;
44130;SDS011;29792;48.726;9.248;2022-09-12T07:15:25;13.90;;;10.38;;
44130;SDS011;29792;48.726;9.248;2022-09-12T07:17:51;13.05;;;9.68;;
44130;SDS011;29792;48.726;9.248;2022-09-12T07:20:16;13.95;;;10.80;;
44130;SDS011;29792;48.726;9.248;2022-09-12T07:22:41;11.98;;;9.55;;
44130;SDS011;29792;48.726;9.248;2022-09-12T07:25:07;16.67;;;10.80;;
44130;SDS011;29792;48.726;9.248;2022-09-12T07:27:32;13.60;;;11.32;;
44130;SDS011;29792;48.726;9.248;2022-09-12T07:29:58;9.93;;;8.85;;
44130;SDS011;29792;48.726;9.248;2022-09-12T07:32:24;10.88;;;9.77;;
44130;SDS011;29792;48.726;9.248;2022-09-12T07:34:49;10.60;;;9.50;;
44130;SDS011;29792;48.726;9.248;2022-09-12T07:37:16;10.27;;;8.20;;
44130;SDS011;29792;48.726;9.248;2022-09-12T07:39:41;10.50;;;8.70;;
44130;SDS011;29792;48.726;9.248;2022-09-12T07:42:07;11.23;;;8.85;;
44130;SDS011;29792;48.726;9.248;2022-09-12T07:44:32;9.77;;;8.75;;
44130;SDS011;29792;48.726;9.248;2022-09-12T07:46:57;10.05;;;7.30;;
44130;SDS011;29792;48.726;9.248;2022-09-12T07:49:22;9.73;;;8.18;;
44130;SDS011;29792;48.726;9.248;2022-09-12T07:51:48;9.68;;;8.68;;
44130;SDS011;29792;48.726;9.248;2022-09-12T07:54:13;11.13;;;8.13;;
44130;SDS011;29792;48.726;9.248;2022-09-12T07:56:39;9.45;;;7.95;;
44130;SDS011;29792;48.726;9.248;2022-09-12T07:59:06;9.05;;;7.40;;
44130;SDS011;29792;48.726;9.248;2022-09-12T08:01:32;6.85;;;6.15;;
44130;SDS011;29792;48.726;9.248;2022-09-12T08:03:57;6.88;;;6.28;;
44130;SDS011;29792;48.726;9.248;2022-09-12T08:06:24;7.40;;;6.07;;
44130;SDS011;29792;48.726;9.248;2022-09-12T08:08:51;8.25;;;6.13;;
44130;SDS011;29792;48.726;9.248;2022-09-12T08:11:18;6.65;;;6.03;;
44130;SDS011;29792;48.726;9.248;2022-09-12T08:13:46;6.90;;;6.20;;
44130;SDS011;29792;48.726;9.248;2022-09-12T08:16:13;6.18;;;5.35;;
44130;SDS011;29792;48.726;9.248;2022-09-12T08:18:40;7.43;;;6.72;;
44130;SDS011;29792;48.726;9.248;2022-09-12T08:21:13;8.20;;;5.60;;
44130;SDS011;29792;48.726;9.248;2022-09-12T08:23:56;6.82;;;5.57;;
44130;SDS011;29792;48.726;9.248;2022-09-12T08:26:23;6.53;;;5.90;;
44130;SDS011;29792;48.726;9.248;2022-09-12T08:28:49;5.72;;;5.15;;
44130;SDS011;29792;48.726;9.248;2022-09-12T08:31:16;6.40;;;4.45;;
44130;SDS011;29792;48.726;9.248;2022-09-12T08:33:43;4.80;;;4.30;;
44130;SDS011;29792;48.726;9.248;2022-09-12T08:36:09;5.97;;;4.65;;
44130;SDS011;29792;48.726;9.248;2022-09-12T08:38:39;5.00;;;4.50;;
44130;SDS011;29792;48.726;9.248;2022-09-12T08:41:11;4.05;;;3.65;;
44130;SDS011;29792;48.726;9.248;2022-09-12T08:44:14;6.13;;;4.35;;
44130;SDS011;29792;48.726;9.248;2022-09-12T08:49:48;4.05;;;3.00;;
44130;SDS011;29792;48.726;9.248;2022-09-12T08:52:20;3.50;;;3.20;;
44130;SDS011;29792;48.726;9.248;2022-09-12T08:54:51;3.55;;;3.25;;
44130;SDS011;29792;48.726;9.248;2022-09-12T08:57:18;3.97;;;3.63;;
44130;SDS011;29792;48.726;9.248;2022-09-12T08:59:44;4.57;;;2.85;;
44130;SDS011;29792;48.726;9.248;2022-09-12T09:11:12;5.03;;;3.05;;
44130;SDS011;29792;48.726;9.248;2022-09-12T09:17:06;3.55;;;2.30;;
44130;SDS011;29792;48.726;9.248;2022-09-12T09:19:37;3.67;;;2.15;;
44130;SDS011;29792;48.726;9.248;2022-09-12T09:22:10;2.22;;;2.03;;
44130;SDS011;29792;48.726;9.248;2022-09-12T09:24:44;2.55;;;2.35;;
44130;SDS011;29792;48.726;9.248;2022-09-12T09:27:24;2.95;;;1.98;;
44130;SDS011;29792;48.726;9.248;2022-09-12T09:29:56;1.98;;;1.25;;
44130;SDS011;29792;48.726;9.248;2022-09-12T09:32:25;2.72;;;1.70;;
44130;SDS011;29792;48.726;9.248;2022-09-12T09:34:57;2.00;;;1.90;;
44130;SDS011;29792;48.726;9.248;2022-09-12T09:37:26;1.88;;;1.77;;
44130;SDS011;29792;48.726;9.248;2022-09-12T09:40:20;2.40;;;2.08;;
44130;SDS011;29792;48.726;9.248;2022-09-12T09:43:02;4.72;;;2.40;;
44130;SDS011;29792;48.726;9.248;2022-09-12T09:45:37;1.73;;;1.63;;
44130;SDS011;29792;48.726;9.248;2022-09-12T09:48:21;2.30;;;1.80;;
44130;SDS011;29792;48.726;9.248;2022-09-12T09:50:49;2.38;;;1.80;;
44130;SDS011;29792;48.726;9.248;2022-09-12T09:53:24;2.10;;;1.85;;
44130;SDS011;29792;48.726;9.248;2022-09-12T09:55:55;1.70;;;1.60;;
44130;SDS011;29792;48.726;9.248;2022-09-12T09:58:27;1.73;;;1.63;;
44130;SDS011;29792;48.726;9.248;2022-09-12T10:00:58;2.67;;;1.67;;
44130;SDS011;29792;48.726;9.248;2022-09-12T10:03:29;1.80;;;1.60;;
44130;SDS011;29792;48.726;9.248;2022-09-12T10:06:20;1.70;;;1.60;;
44130;SDS011;29792;48.726;9.248;2022-09-12T10:08:49;1.90;;;1.58;;
44130;SDS011;29792;48.726;9.248;2022-09-12T10:13:41;1.60;;;1.50;;
44130;SDS011;29792;48.726;9.248;2022-09-12T10:16:28;2.05;;;1.60;;
44130;SDS011;29792;48.726;9.248;2022-09-12T10:18:59;2.00;;;1.42;;
44130;SDS011;29792;48.726;9.248;2022-09-12T10:21:38;1.30;;;1.20;;
44130;SDS011;29792;48.726;9.248;2022-09-12T10:24:20;1.48;;;1.38;;
44130;SDS011;29792;48.726;9.248;2022-09-12T10:29:21;3.30;;;1.88;;
44130;SDS011;29792;48.726;9.248;2022-09-12T10:31:52;2.15;;;1.70;;
44130;SDS011;29792;48.726;9.248;2022-09-12T10:34:27;4.75;;;1.75;;
44130;SDS011;29792;48.726;9.248;2022-09-12T10:37:00;2.05;;;1.85;;
44130;SDS011;29792;48.726;9.248;2022-09-12T10:39:28;2.47;;;2.13;;
44130;SDS011;29792;48.726;9.248;2022-09-12T10:41:55;1.95;;;1.45;;
44130;SDS011;29792;48.726;9.248;2022-09-12T10:44:25;3.13;;;1.52;;
44130;SDS011;29792;48.726;9.248;2022-09-12T10:46:53;1.40;;;1.23;;
44130;SDS011;29792;48.726;9.248;2022-09-12T10:49:28;1.05;;;1.00;;
44130;SDS011;29792;48.726;9.248;2022-09-12T10:51:56;2.05;;;1.10;;
44130;SDS011;29792;48.726;9.248;2022-09-12T10:54:36;1.40;;;1.00;;
44130;SDS011;29792;48.726;9.248;2022-09-12T11:00:14;1.75;;;1.65;;
44130;SDS011;29792;48.726;9.248;2022-09-12T11:05:32;1.48;;;1.35;;
44130;SDS011;29792;48.726;9.248;2022-09-12T11:22:15;1.40;;;0.80;;
44130;SDS011;29792;48.726;9.248;2022-09-12T11:27:44;1.63;;;1.35;;
44130;SDS011;29792;48.726;9.248;2022-09-12T11:30:17;1.60;;;1.17;;
44130;SDS011;29792;48.726;9.248;2022-09-12T11:38:14;0.85;;;0.70;;
44130;SDS011;29792;48.726;9.248;2022-09-12T11:40:55;1.10;;;0.90;;
44130;SDS011;29792;48.726;9.248;2022-09-12T11:46:07;1.67;;;1.17;;
44130;SDS011;29792;48.726;9.248;2022-09-12T11:48:53;1.33;;;1.23;;
44130;SDS011;29792;48.726;9.248;2022-09-12T11:54:37;0.63;;;0.63;;
44130;SDS011;29792;48.726;9.248;2022-09-12T12:08:04;1.53;;;0.80;;
44130;SDS011;29792;48.726;9.248;2022-09-12T12:13:02;0.40;;;0.40;;
44130;SDS011;29792;48.726;9.248;2022-09-12T12:15:31;1.42;;;1.10;;
44130;SDS011;29792;48.726;9.248;2022-09-12T12:18:01;1.35;;;0.70;;
44130;SDS011;29792;48.726;9.248;2022-09-12T12:20:30;1.65;;;0.80;;
44130;SDS011;29792;48.726;9.248;2022-09-12T12:22:56;1.30;;;0.80;;
44130;SDS011;29792;48.726;9.248;2022-09-12T12:25:23;1.00;;;1.00;;
44130;SDS011;29792;48.726;9.248;2022-09-12T12:28:05;0.68;;;0.68;;
44130;SDS011;29792;48.726;9.248;2022-09-12T12:33:01;1.02;;;0.93;;
44130;SDS011;29792;48.726;9.248;2022-09-12T12:38:39;3.13;;;0.80;;
44130;SDS011;29792;48.726;9.248;2022-09-12T12:43:44;0.77;;;0.63;;
44130;SDS011;29792;48.726;9.248;2022-09-12T12:46:12;0.40;;;0.40;;
44130;SDS011;29792;48.726;9.248;2022-09-12T12:48:42;1.05;;;0.70;;
44130;SDS011;29792;48.726;9.248;2022-09-12T12:51:32;0.80;;;0.70;;
44130;SDS011;29792;48.726;9.248;2022-09-12T12:54:01;1.10;;;0.63;;
44130;SDS011;29792;48.726;9.248;2022-09-12T12:59:00;0.80;;;0.50;;
44130;SDS011;29792;48.726;9.248;2022-09-12T13:01:28;1.17;;;0.38;;
44130;SDS011;29792;48.726;9.248;2022-09-12T13:04:01;6.82;;;0.98;;
44130;SDS011;29792;48.726;9.248;2022-09-12T13:09:03;1.50;;;0.70;;
44130;SDS011;29792;48.726;9.248;2022-09-12T13:11:34;0.30;;;0.30;;
44130;SDS011;29792;48.726;9.248;2022-09-12T13:14:05;0.75;;;0.50;;
44130;SDS011;29792;48.726;9.248;2022-09-12T13:16:50;0.50;;;0.50;;
44130;SDS011;29792;48.726;9.248;2022-09-12T13:19:23;1.17;;;0.30;;
44130;SDS011;29792;48.726;9.248;2022-09-12T13:21:58;0.30;;;0.30;;
44130;SDS011;29792;48.726;9.248;2022-09-12T13:24:25;0.35;;;0.30;;
44130;SDS011;29792;48.726;9.248;2022-09-12T13:26:50;0.70;;;0.30;;
44130;SDS011;29792;48.726;9.248;2022-09-12T13:29:18;0.30;;;0.20;;
44130;SDS011;29792;48.726;9.248;2022-09-12T13:31:46;0.43;;;0.20;;
44130;SDS011;29792;48.726;9.248;2022-09-12T13:34:21;0.30;;;0.30;;
44130;SDS011;29792;48.726;9.248;2022-09-12T13:39:48;0.20;;;0.20;;
44130;SDS011;29792;48.726;9.248;2022-09-12T13:45:10;0.30;;;0.25;;
44130;SDS011;29792;48.726;9.248;2022-09-12T13:47:45;0.38;;;0.20;;
44130;SDS011;29792;48.726;9.248;2022-09-12T13:50:14;0.30;;;0.30;;
44130;SDS011;29792;48.726;9.248;2022-09-12T13:52:44;1.90;;;0.40;;
44130;SDS011;29792;48.726;9.248;2022-09-12T13:55:20;1.45;;;0.30;;
44130;SDS011;29792;48.726;9.248;2022-09-12T13:58:01;0.50;;;0.22;;
44130;SDS011;29792;48.726;9.248;2022-09-12T14:00:45;0.63;;;0.30;;
44130;SDS011;29792;48.726;9.248;2022-09-12T14:03:21;1.05;;;0.20;;
44130;SDS011;29792;48.726;9.248;2022-09-12T14:06:09;1.17;;;0.47;;
44130;SDS011;29792;48.726;9.248;2022-09-12T14:08:39;1.77;;;0.75;;
44130;SDS011;29792;48.726;9.248;2022-09-12T14:11:09;0.85;;;0.50;;
44130;SDS011;29792;48.726;9.248;2022-09-12T14:13:35;1.48;;;1.25;;
44130;SDS011;29792;48.726;9.248;2022-09-12T14:16:05;1.50;;;0.75;;
44130;SDS011;29792;48.726;9.248;2022-09-12T14:18:35;0.30;;;0.30;;
44130;SDS011;29792;48.726;9.248;2022-09-12T14:21:06;2.63;;;0.50;;
44130;SDS011;29792;48.726;9.248;2022-09-12T14:23:34;2.35;;;0.75;;
44130;SDS011;29792;48.726;9.248;2022-09-12T14:26:05;0.40;;;0.40;;
44130;SDS011;29792;48.726;9.248;2022-09-12T14:28:37;0.47;;;0.47;;
44130;SDS011;29792;48.726;9.248;2022-09-12T14:33:46;0.52;;;0.50;;
44130;SDS011;29792;48.726;9.248;2022-09-12T14:36:17;1.65;;;0.70;;
44130;SDS011;29792;48.726;9.248;2022-09-12T14:38:47;0.73;;;0.52;;
44130;SDS011;29792;48.726;9.248;2022-09-12T14:41:20;1.05;;;0.70;;
44130;SDS011;29792;48.726;9.248;2022-09-12T14:43:49;0.40;;;0.40;;
44130;SDS011;29792;48.726;9.248;2022-09-12T14:46:22;0.57;;;0.40;;
44130;SDS011;29792;48.726;9.248;2022-09-12T14:48:53;0.50;;;0.47;;
44130;SDS011;29792;48.726;9.248;2022-09-12T14:51:25;0.80;;;0.60;;
44130;SDS011;29792;48.726;9.248;2022-09-12T14:53:55;2.17;;;0.65;;
44130;SDS011;29792;48.726;9.248;2022-09-12T14:56:21;2.30;;;0.85;;
44130;SDS011;29792;48.726;9.248;2022-09-12T15:04:37;1.30;;;0.52;;
44130;SDS011;29792;48.726;9.248;2022-09-12T15:07:14;0.82;;;0.82;;
44130;SDS011;29792;48.726;9.248;2022-09-12T15:09:46;0.80;;;0.50;;
44130;SDS011;29792;48.726;9.248;2022-09-12T15:12:12;0.75;;;0.65;;
44130;SDS011;29792;48.726;9.248;2022-09-12T15:14:37;1.20;;;0.80;;
44130;SDS011;29792;48.726;9.248;2022-09-12T15:17:02;0.50;;;0.50;;
44130;SDS011;29792;48.726;9.248;2022-09-12T15:19:27;0.73;;;0.70;;
44130;SDS011;29792;48.726;9.248;2022-09-12T15:21:53;0.60;;;0.60;;
44130;SDS011;29792;48.726;9.248;2022-09-12T15:24:18;2.05;;;0.55;;
44130;SDS011;29792;48.726;9.248;2022-09-12T15:26:43;0.63;;;0.40;;
44130;SDS011;29792;48.726;9.248;2022-09-12T15:29:08;0.82;;;0.50;;
44130;SDS011;29792;48.726;9.248;2022-09-12T15:31:34;1.90;;;0.40;;
44130;SDS011;29792;48.726;9.248;2022-09-12T15:34:00;0.90;;;0.80;;
44130;SDS011;29792;48.726;9.248;2022-09-12T15:36:26;0.57;;;0.40;;
44130;SDS011;29792;48.726;9.248;2022-09-12T15:38:53;1.75;;;1.00;;
44130;SDS011;29792;48.726;9.248;2022-09-12T15:41:20;0.38;;;0.35;;
44130;SDS011;29792;48.726;9.248;2022-09-12T15:43:47;0.40;;;0.40;;
44130;SDS011;29792;48.726;9.248;2022-09-12T15:46:13;1.05;;;0.75;;
44130;SDS011;29792;48.726;9.248;2022-09-12T15:48:40;0.88;;;0.73;;
44130;SDS011;29792;48.726;9.248;2022-09-12T15:51:09;1.15;;;0.63;;
44130;SDS011;29792;48.726;9.248;2022-09-12T15:53:36;0.95;;;0.77;;
44130;SDS011;29792;48.726;9.248;2022-09-12T15:56:02;0.60;;;0.52;;
44130;SDS011;29792;48.726;9.248;2022-09-12T15:58:28;0.70;;;0.70;;
44130;SDS011;29792;48.726;9.248;2022-09-12T16:00:53;0.45;;;0.43;;
44130;SDS011;29792;48.726;9.248;2022-09-12T16:03:22;0.73;;;0.40;;
44130;SDS011;29792;48.726;9.248;2022-09-12T16:05:55;0.40;;;0.38;;
44130;SDS011;29792;48.726;9.248;2022-09-12T16:08:23;0.75;;;0.75;;
44130;SDS011;29792;48.726;9.248;2022-09-12T16:10:48;1.80;;;0.40;;
44130;SDS011;29792;48.726;9.248;2022-09-12T16:13:17;0.95;;;0.60;;
44130;SDS011;29792;48.726;9.248;2022-09-12T16:15:43;0.95;;;0.60;;
44130;SDS011;29792;48.726;9.248;2022-09-12T16:18:09;0.60;;;0.60;;
44130;SDS011;29792;48.726;9.248;2022-09-12T16:20:37;0.47;;;0.47;;
44130;SDS011;29792;48.726;9.248;2022-09-12T16:23:02;0.50;;;0.38;;
44130;SDS011;29792;48.726;9.248;2022-09-12T16:25:28;0.40;;;0.40;;
44130;SDS011;29792;48.726;9.248;2022-09-12T16:27:53;0.65;;;0.32;;
44130;SDS011;29792;48.726;9.248;2022-09-12T16:30:18;1.05;;;0.60;;
44130;SDS011;29792;48.726;9.248;2022-09-12T16:32:44;1.00;;;0.60;;
44130;SDS011;29792;48.726;9.248;2022-09-12T16:35:09;0.43;;;0.25;;
44130;SDS011;29792;48.726;9.248;2022-09-12T16:37:34;1.10;;;0.80;;
44130;SDS011;29792;48.726;9.248;2022-09-12T16:40:00;1.95;;;0.90;;
44130;SDS011;29792;48.726;9.248;2022-09-12T16:42:27;0.65;;;0.40;;
44130;SDS011;29792;48.726;9.248;2022-09-12T16:44:52;3.70;;;0.70;;
44130;SDS011;29792;48.726;9.248;2022-09-12T16:47:17;2.08;;;0.55;;
44130;SDS011;29792;48.726;9.248;2022-09-12T16:49:42;0.85;;;0.60;;
44130;SDS011;29792;48.726;9.248;2022-09-12T16:52:08;0.50;;;0.50;;
44130;SDS011;29792;48.726;9.248;2022-09-12T16:54:34;0.90;;;0.90;;